Costa Luminosa — ICGU — position and weather

sailwx.info

Track history (hours):
 
Tides and Currents Weather Stations Pressure Air Temp Water Temp Dewpoint Dewpoint Depression Visibility Wind Speed Wind Dir Waves Ship Positions

Costa Luminosa

Last reported at 2017-Dec-09 23:55 UTC. Time now 2017-Dec-14 15:07 UTC.
Position N 44°05' E 014°04'.

Length 294 m; draft 8 m.

Type: Passenger vessel. MMSI: 247257900.

Date/timePositionNaut miles runAvg speedWind from/ knotsBaromVisibWave heightAir tempDewpointWater temp
2017-Dec-09 23:55N 44°05' E 014°04'817.0
2017-Dec-09 23:27N 44°11' E 013°58'817.0
2017-Dec-09 23:00N 44°17' E 013°52'917.1
2017-Dec-09 22:30N 44°25' E 013°46'817.0
2017-Dec-09 22:00N 44°32' E 013°39'816.5
2017-Dec-09 21:30N 44°39' E 013°33'816.4
2017-Dec-09 21:00N 44°45' E 013°26'816.4
2017-Dec-09 20:30N 44°52' E 013°20'816.5
2017-Dec-09 20:00N 44°59' E 013°13'816.8
2017-Dec-09 19:30N 45°04' E 013°04'816.8
2017-Dec-09 19:00N 45°09' E 012°54'816.8
2017-Dec-09 18:30N 45°15' E 012°45'816.5
2017-Dec-09 18:00N 45°20' E 012°36'714.2
2017-Dec-09 17:30N 45°24' E 012°28'4 8.1
2017-Dec-09 17:00N 45°26' E 012°23'3 5.0
2017-Dec-09 16:30N 45°26' E 012°19'1 1.1
2017-Dec-09 15:59N 45°26' E 012°19'0 0.0
2017-Dec-09 15:29N 45°26' E 012°19'0 0.0
2017-Dec-09 14:59N 45°26' E 012°19'0 0.0
2017-Dec-09 14:29N 45°26' E 012°19'0 0.0
2017-Dec-09 13:59N 45°26' E 012°19'0 0.0
2017-Dec-09 13:29N 45°26' E 012°19'0 0.0
2017-Dec-09 12:59N 45°26' E 012°19'0 0.0
2017-Dec-09 12:29N 45°26' E 012°19'0 0.0
2017-Dec-09 11:59N 45°26' E 012°19'0 0.0
2017-Dec-09 11:29N 45°26' E 012°19'0 0.0
2017-Dec-09 10:59N 45°26' E 012°19'0 0.0
2017-Dec-09 10:29N 45°26' E 012°19'0 0.0
2017-Dec-09 09:59N 45°26' E 012°19'0 0.0
2017-Dec-09 09:29N 45°26' E 012°19'0 0.1
2017-Dec-09 09:00N 45°26' E 012°19'1 2.9
2017-Dec-09 08:30N 45°26' E 012°21'2 4.7
2017-Dec-09 08:01N 45°26' E 012°24'4 8.2
2017-Dec-09 07:30N 45°24' E 012°29'1 2.2
2017-Dec-09 07:00N 45°24' E 012°31'0 0.2
2017-Dec-09 06:31N 45°24' E 012°31'2 3.4
2017-Dec-09 06:00N 45°23' E 012°32'816.4
2017-Dec-09 05:30N 45°17' E 012°40'816.5
2017-Dec-09 05:00N 45°12' E 012°50'816.5
2017-Dec-09 04:30N 45°07' E 012°59'815.8
2017-Dec-09 04:00N 45°02' E 013°07'816.7
2017-Dec-09 03:30N 44°57' E 013°17'816.2
2017-Dec-09 03:00N 44°52' E 013°25'816.3
2017-Dec-09 02:30N 44°45' E 013°32'714.5
2017-Dec-09 02:00N 44°39' E 013°37'713.7
2017-Dec-09 01:30N 44°33' E 013°42'714.0
2017-Dec-09 01:01N 44°27' E 013°48'714.5
2017-Dec-09 00:30N 44°21' E 013°54'714.8
2017-Dec-09 00:00N 44°15' E 013°60'815.2
2017-Dec-08 23:31N 44°09' E 014°06'714.6
2017-Dec-08 23:00N 44°04' E 014°14'  
2017-Dec-02 23:25N 44°04' E 014°05'817.9
2017-Dec-02 22:59N 44°10' E 013°58'917.9
2017-Dec-02 22:29N 44°18' E 013°52'1217.9
2017-Dec-02 21:50N 44°27' E 013°42'617.7
2017-Dec-02 21:30N 44°31' E 013°37'917.7
2017-Dec-02 21:00N 44°39' E 013°30'917.8
2017-Dec-02 20:30N 44°46' E 013°24'918.0
2017-Dec-02 20:00N 44°54' E 013°17'917.6
2017-Dec-02 19:30N 45°01' E 013°09'917.6
2017-Dec-02 19:00N 45°07' E 012°60'917.4
2017-Dec-02 18:30N 45°13' E 012°51'816.7
2017-Dec-02 18:01N 45°18' E 012°42'815.7
2017-Dec-02 17:30N 45°22' E 012°32'713.7
2017-Dec-02 17:00N 45°26' E 012°24'3 5.2
2017-Dec-02 16:30N 45°26' E 012°20'1 2.3
2017-Dec-02 15:56N 45°26' E 012°19'0 0.0
2017-Dec-02 15:26N 45°26' E 012°19'0 0.0
2017-Dec-02 14:56N 45°26' E 012°19'0 0.0
2017-Dec-02 14:26N 45°26' E 012°19'0 0.0
2017-Dec-02 13:56N 45°26' E 012°19'0 0.0
2017-Dec-02 13:26N 45°26' E 012°19'0 0.0
2017-Dec-02 12:56N 45°26' E 012°19'0 0.0
2017-Dec-02 12:26N 45°26' E 012°19'0 0.0
2017-Dec-02 11:56N 45°26' E 012°19'0 0.0
2017-Dec-02 11:26N 45°26' E 012°19'0 0.0
2017-Dec-02 10:56N 45°26' E 012°19'0 0.0
2017-Dec-02 10:26N 45°26' E 012°19'0 0.0
2017-Dec-02 09:56N 45°26' E 012°19'0 0.0
2017-Dec-02 09:26N 45°26' E 012°19'0 0.0
2017-Dec-02 08:56N 45°26' E 012°19'0 0.0
2017-Dec-02 08:26N 45°26' E 012°19'0 0.0
2017-Dec-02 07:56N 45°26' E 012°19'0 0.0
2017-Dec-02 07:26N 45°26' E 012°19'0 0.0
2017-Dec-02 06:56N 45°26' E 012°19'0 0.0
2017-Dec-02 06:26N 45°26' E 012°19'0 0.0
2017-Dec-02 05:56N 45°26' E 012°19'0 0.0
2017-Dec-02 05:26N 45°26' E 012°19'0 0.0
2017-Dec-02 04:56N 45°26' E 012°19'0 0.0
2017-Dec-02 04:26N 45°26' E 012°19'0 0.0
2017-Dec-02 03:56N 45°26' E 012°19'0 0.0
2017-Dec-02 03:26N 45°26' E 012°19'0 0.0
2017-Dec-02 02:56N 45°26' E 012°19'0 0.0
2017-Dec-02 02:26N 45°26' E 012°19'0 0.0
2017-Dec-02 01:56N 45°26' E 012°19'0 0.0
2017-Dec-02 01:26N 45°26' E 012°19'0 0.0
2017-Dec-02 00:56N 45°26' E 012°19'0 0.0
2017-Dec-02 00:26N 45°26' E 012°19'0 0.0
2017-Dec-01 23:56N 45°26' E 012°19'0 0.0
2017-Dec-01 23:26N 45°26' E 012°19'0 0.0
2017-Dec-01 22:56N 45°26' E 012°19'0 0.0
2017-Dec-01 22:26N 45°26' E 012°19'0 0.0
2017-Dec-01 21:56N 45°26' E 012°19'0 0.0
2017-Dec-01 21:26N 45°26' E 012°19'0 0.0
2017-Dec-01 20:56N 45°26' E 012°19'0 0.0
2017-Dec-01 20:26N 45°26' E 012°19'0 0.0
2017-Dec-01 19:56N 45°26' E 012°19'0 0.0
2017-Dec-01 19:26N 45°26' E 012°19'0 0.0
2017-Dec-01 18:56N 45°26' E 012°19'0 0.0
2017-Dec-01 18:26N 45°26' E 012°19'0 0.0
2017-Dec-01 17:56N 45°26' E 012°19'0 0.0
2017-Dec-01 17:26N 45°26' E 012°19'0 0.0
2017-Dec-01 16:56N 45°26' E 012°19'0 0.0
2017-Dec-01 16:26N 45°26' E 012°19'0 0.0
2017-Dec-01 15:56N 45°26' E 012°19'0 0.0
2017-Dec-01 15:26N 45°26' E 012°19'0 0.0
2017-Dec-01 14:56N 45°26' E 012°19'0 0.3
2017-Dec-01 14:30N 45°26' E 012°19'2 3.4
2017-Dec-01 14:00N 45°26' E 012°21'3 5.1
2017-Dec-01 13:30N 45°26' E 012°25'510.8
2017-Dec-01 13:00N 45°23' E 012°31'1019.6
2017-Dec-01 12:30N 45°17' E 012°42'1020.1
2017-Dec-01 12:00N 45°11' E 012°53'1020.2
2017-Dec-01 11:30N 45°04' E 013°04'1020.2
2017-Dec-01 11:00N 44°58' E 013°16'1019.8
2017-Dec-01 10:30N 44°51' E 013°26'1020.2
2017-Dec-01 10:00N 44°43' E 013°33'1020.0
2017-Dec-01 09:30N 44°34' E 013°41'1121.3
2017-Dec-01 09:00N 44°25' E 013°49'1121.8
2017-Dec-01 08:30N 44°16' E 013°58'1121.8
2017-Dec-01 08:00N 44°07' E 014°06'  
Track history (hours):
 
Tides and Currents Weather Stations Pressure Air Temp Water Temp Dewpoint Dewpoint Depression Visibility Wind Speed Wind Dir Waves Ship Positions

Costa Luminosa

Last reported at 2017-Dec-09 23:55 UTC. Time now 2017-Dec-14 15:07 UTC.
Position N 44°05' E 014°04'.

Length 294 m; draft 8 m.

Type: Passenger vessel. MMSI: 247257900.

Date/timePositionNaut miles runAvg speedWind from/ knotsBaromVisibWave heightAir tempDewpointWater temp
2017-Dec-09 23:55N 44°05' E 014°04'817.0
2017-Dec-09 23:27N 44°11' E 013°58'817.0
2017-Dec-09 23:00N 44°17' E 013°52'917.1
2017-Dec-09 22:30N 44°25' E 013°46'817.0
2017-Dec-09 22:00N 44°32' E 013°39'816.5
2017-Dec-09 21:30N 44°39' E 013°33'816.4
2017-Dec-09 21:00N 44°45' E 013°26'816.4
2017-Dec-09 20:30N 44°52' E 013°20'816.5
2017-Dec-09 20:00N 44°59' E 013°13'816.8
2017-Dec-09 19:30N 45°04' E 013°04'816.8
2017-Dec-09 19:00N 45°09' E 012°54'816.8
2017-Dec-09 18:30N 45°15' E 012°45'816.5
2017-Dec-09 18:00N 45°20' E 012°36'714.2
2017-Dec-09 17:30N 45°24' E 012°28'4 8.1
2017-Dec-09 17:00N 45°26' E 012°23'3 5.0
2017-Dec-09 16:30N 45°26' E 012°19'1 1.1
2017-Dec-09 15:59N 45°26' E 012°19'0 0.0
2017-Dec-09 15:29N 45°26' E 012°19'0 0.0
2017-Dec-09 14:59N 45°26' E 012°19'0 0.0
2017-Dec-09 14:29N 45°26' E 012°19'0 0.0
2017-Dec-09 13:59N 45°26' E 012°19'0 0.0
2017-Dec-09 13:29N 45°26' E 012°19'0 0.0
2017-Dec-09 12:59N 45°26' E 012°19'0 0.0
2017-Dec-09 12:29N 45°26' E 012°19'0 0.0
2017-Dec-09 11:59N 45°26' E 012°19'0 0.0
2017-Dec-09 11:29N 45°26' E 012°19'0 0.0
2017-Dec-09 10:59N 45°26' E 012°19'0 0.0
2017-Dec-09 10:29N 45°26' E 012°19'0 0.0
2017-Dec-09 09:59N 45°26' E 012°19'0 0.0
2017-Dec-09 09:29N 45°26' E 012°19'0 0.1
2017-Dec-09 09:00N 45°26' E 012°19'1 2.9
2017-Dec-09 08:30N 45°26' E 012°21'2 4.7
2017-Dec-09 08:01N 45°26' E 012°24'4 8.2
2017-Dec-09 07:30N 45°24' E 012°29'1 2.2
2017-Dec-09 07:00N 45°24' E 012°31'0 0.2
2017-Dec-09 06:31N 45°24' E 012°31'2 3.4
2017-Dec-09 06:00N 45°23' E 012°32'816.4
2017-Dec-09 05:30N 45°17' E 012°40'816.5
2017-Dec-09 05:00N 45°12' E 012°50'816.5
2017-Dec-09 04:30N 45°07' E 012°59'815.8
2017-Dec-09 04:00N 45°02' E 013°07'816.7
2017-Dec-09 03:30N 44°57' E 013°17'816.2
2017-Dec-09 03:00N 44°52' E 013°25'816.3
2017-Dec-09 02:30N 44°45' E 013°32'714.5
2017-Dec-09 02:00N 44°39' E 013°37'713.7
2017-Dec-09 01:30N 44°33' E 013°42'714.0
2017-Dec-09 01:01N 44°27' E 013°48'714.5
2017-Dec-09 00:30N 44°21' E 013°54'714.8
2017-Dec-09 00:00N 44°15' E 013°60'815.2
2017-Dec-08 23:31N 44°09' E 014°06'714.6
2017-Dec-08 23:00N 44°04' E 014°14'  
2017-Dec-02 23:25N 44°04' E 014°05'817.9
2017-Dec-02 22:59N 44°10' E 013°58'917.9
2017-Dec-02 22:29N 44°18' E 013°52'1217.9
2017-Dec-02 21:50N 44°27' E 013°42'617.7
2017-Dec-02 21:30N 44°31' E 013°37'917.7
2017-Dec-02 21:00N 44°39' E 013°30'917.8
2017-Dec-02 20:30N 44°46' E 013°24'918.0
2017-Dec-02 20:00N 44°54' E 013°17'917.6
2017-Dec-02 19:30N 45°01' E 013°09'917.6
2017-Dec-02 19:00N 45°07' E 012°60'917.4
2017-Dec-02 18:30N 45°13' E 012°51'816.7
2017-Dec-02 18:01N 45°18' E 012°42'815.7
2017-Dec-02 17:30N 45°22' E 012°32'713.7
2017-Dec-02 17:00N 45°26' E 012°24'3 5.2
2017-Dec-02 16:30N 45°26' E 012°20'1 2.3
2017-Dec-02 15:56N 45°26' E 012°19'0 0.0
2017-Dec-02 15:26N 45°26' E 012°19'0 0.0
2017-Dec-02 14:56N 45°26' E 012°19'0 0.0
2017-Dec-02 14:26N 45°26' E 012°19'0 0.0
2017-Dec-02 13:56N 45°26' E 012°19'0 0.0
2017-Dec-02 13:26N 45°26' E 012°19'0 0.0
2017-Dec-02 12:56N 45°26' E 012°19'0 0.0
2017-Dec-02 12:26N 45°26' E 012°19'0 0.0
2017-Dec-02 11:56N 45°26' E 012°19'0 0.0
2017-Dec-02 11:26N 45°26' E 012°19'0 0.0
2017-Dec-02 10:56N 45°26' E 012°19'0 0.0
2017-Dec-02 10:26N 45°26' E 012°19'0 0.0
2017-Dec-02 09:56N 45°26' E 012°19'0 0.0
2017-Dec-02 09:26N 45°26' E 012°19'0 0.0
2017-Dec-02 08:56N 45°26' E 012°19'0 0.0
2017-Dec-02 08:26N 45°26' E 012°19'0 0.0
2017-Dec-02 07:56N 45°26' E 012°19'0 0.0
2017-Dec-02 07:26N 45°26' E 012°19'0 0.0
2017-Dec-02 06:56N 45°26' E 012°19'0 0.0
2017-Dec-02 06:26N 45°26' E 012°19'0 0.0
2017-Dec-02 05:56N 45°26' E 012°19'0 0.0
2017-Dec-02 05:26N 45°26' E 012°19'0 0.0
2017-Dec-02 04:56N 45°26' E 012°19'0 0.0
2017-Dec-02 04:26N 45°26' E 012°19'0 0.0
2017-Dec-02 03:56N 45°26' E 012°19'0 0.0
2017-Dec-02 03:26N 45°26' E 012°19'0 0.0
2017-Dec-02 02:56N 45°26' E 012°19'0 0.0
2017-Dec-02 02:26N 45°26' E 012°19'0 0.0
2017-Dec-02 01:56N 45°26' E 012°19'0 0.0
2017-Dec-02 01:26N 45°26' E 012°19'0 0.0
2017-Dec-02 00:56N 45°26' E 012°19'0 0.0
2017-Dec-02 00:26N 45°26' E 012°19'0 0.0
2017-Dec-01 23:56N 45°26' E 012°19'0 0.0
2017-Dec-01 23:26N 45°26' E 012°19'0 0.0
2017-Dec-01 22:56N 45°26' E 012°19'0 0.0
2017-Dec-01 22:26N 45°26' E 012°19'0 0.0
2017-Dec-01 21:56N 45°26' E 012°19'0 0.0
2017-Dec-01 21:26N 45°26' E 012°19'0 0.0
2017-Dec-01 20:56N 45°26' E 012°19'0 0.0
2017-Dec-01 20:26N 45°26' E 012°19'0 0.0
2017-Dec-01 19:56N 45°26' E 012°19'0 0.0
2017-Dec-01 19:26N 45°26' E 012°19'0 0.0
2017-Dec-01 18:56N 45°26' E 012°19'0 0.0
2017-Dec-01 18:26N 45°26' E 012°19'0 0.0
2017-Dec-01 17:56N 45°26' E 012°19'0 0.0
2017-Dec-01 17:26N 45°26' E 012°19'0 0.0
2017-Dec-01 16:56N 45°26' E 012°19'0 0.0
2017-Dec-01 16:26N 45°26' E 012°19'0 0.0
2017-Dec-01 15:56N 45°26' E 012°19'0 0.0
2017-Dec-01 15:26N 45°26' E 012°19'0 0.0
2017-Dec-01 14:56N 45°26' E 012°19'0 0.3
2017-Dec-01 14:30N 45°26' E 012°19'2 3.4
2017-Dec-01 14:00N 45°26' E 012°21'3 5.1
2017-Dec-01 13:30N 45°26' E 012°25'510.8
2017-Dec-01 13:00N 45°23' E 012°31'1019.6
2017-Dec-01 12:30N 45°17' E 012°42'1020.1
2017-Dec-01 12:00N 45°11' E 012°53'1020.2
2017-Dec-01 11:30N 45°04' E 013°04'1020.2
2017-Dec-01 11:00N 44°58' E 013°16'1019.8
2017-Dec-01 10:30N 44°51' E 013°26'1020.2
2017-Dec-01 10:00N 44°43' E 013°33'1020.0
2017-Dec-01 09:30N 44°34' E 013°41'1121.3
2017-Dec-01 09:00N 44°25' E 013°49'1121.8
2017-Dec-01 08:30N 44°16' E 013°58'1121.8
2017-Dec-01 08:00N 44°07' E 014°06'  

Dump ship's entire track history